sensor_id;sensor_type;location;lat;lon;timestamp;pressure;altitude;pressure_sealevel;temperature;humidity
16016;BME280;8112;53.592;10.184;2023-02-24T00:04:46;100787.31;;;3.76;100.00
16016;BME280;8112;53.592;10.184;2023-02-24T00:09:50;100789.06;;;3.74;100.00
16016;BME280;8112;53.592;10.184;2023-02-24T00:14:52;100777.59;;;3.81;100.00
16016;BME280;8112;53.592;10.184;2023-02-24T00:19:55;100777.53;;;3.82;100.00
16016;BME280;8112;53.592;10.184;2023-02-24T00:24:57;100768.78;;;3.85;100.00
16016;BME280;8112;53.592;10.184;2023-02-24T00:30:00;100770.47;;;3.86;100.00
16016;BME280;8112;53.592;10.184;2023-02-24T00:35:12;100771.41;;;3.83;100.00
16016;BME280;8112;53.592;10.184;2023-02-24T00:40:15;100762.53;;;3.91;100.00
16016;BME280;8112;53.592;10.184;2023-02-24T00:45:22;100754.56;;;3.95;100.00
16016;BME280;8112;53.592;10.184;2023-02-24T00:50:25;100740.06;;;3.87;100.00
16016;BME280;8112;53.592;10.184;2023-02-24T00:55:27;100731.34;;;3.88;100.00
16016;BME280;8112;53.592;10.184;2023-02-24T01:00:35;100725.31;;;3.85;100.00
16016;BME280;8112;53.592;10.184;2023-02-24T01:05:40;100714.81;;;3.87;100.00
16016;BME280;8112;53.592;10.184;2023-02-24T01:10:42;100710.41;;;3.89;100.00
16016;BME280;8112;53.592;10.184;2023-02-24T01:16:04;100708.38;;;3.99;100.00
16016;BME280;8112;53.592;10.184;2023-02-24T01:21:07;100694.53;;;3.97;100.00
16016;BME280;8112;53.592;10.184;2023-02-24T01:26:09;100679.88;;;3.93;100.00
16016;BME280;8112;53.592;10.184;2023-02-24T01:31:15;100665.34;;;3.85;100.00
16016;BME280;8112;53.592;10.184;2023-02-24T01:36:22;100658.34;;;3.88;100.00
16016;BME280;8112;53.592;10.184;2023-02-24T01:41:26;100656.41;;;3.93;100.00
16016;BME280;8112;53.592;10.184;2023-02-24T01:46:30;100642.38;;;3.97;100.00
16016;BME280;8112;53.592;10.184;2023-02-24T01:51:37;100642.63;;;3.89;100.00
16016;BME280;8112;53.592;10.184;2023-02-24T01:56:41;100639.13;;;3.90;100.00
16016;BME280;8112;53.592;10.184;2023-02-24T02:01:44;100632.25;;;3.88;100.00
16016;BME280;8112;53.592;10.184;2023-02-24T02:06:48;100621.84;;;3.88;100.00
16016;BME280;8112;53.592;10.184;2023-02-24T02:11:50;100621.97;;;3.83;100.00
16016;BME280;8112;53.592;10.184;2023-02-24T02:17:06;100614.66;;;3.94;100.00
16016;BME280;8112;53.592;10.184;2023-02-24T02:28:14;100589.03;;;3.80;100.00
16016;BME280;8112;53.592;10.184;2023-02-24T02:39:17;100568.94;;;3.84;100.00
16016;BME280;8112;53.592;10.184;2023-02-24T02:44:31;100564.59;;;3.84;100.00
16016;BME280;8112;53.592;10.184;2023-02-24T02:49:40;100561.13;;;3.84;100.00
16016;BME280;8112;53.592;10.184;2023-02-24T02:54:47;100549.25;;;3.75;100.00
16016;BME280;8112;53.592;10.184;2023-02-24T02:59:52;100543.38;;;3.68;100.00
16016;BME280;8112;53.592;10.184;2023-02-24T03:04:59;100537.13;;;3.74;100.00
16016;BME280;8112;53.592;10.184;2023-02-24T03:10:07;100526.47;;;3.80;100.00
16016;BME280;8112;53.592;10.184;2023-02-24T03:15:11;100516.28;;;3.74;100.00
16016;BME280;8112;53.592;10.184;2023-02-24T03:20:19;100510.84;;;3.80;100.00
16016;BME280;8112;53.592;10.184;2023-02-24T03:25:24;100500.50;;;3.77;100.00
16016;BME280;8112;53.592;10.184;2023-02-24T03:30:35;100490.97;;;3.78;100.00
16016;BME280;8112;53.592;10.184;2023-02-24T03:35:40;100480.47;;;3.79;100.00
16016;BME280;8112;53.592;10.184;2023-02-24T03:40:43;100480.41;;;3.81;100.00
16016;BME280;8112;53.592;10.184;2023-02-24T03:45:53;100463.34;;;3.72;100.00
16016;BME280;8112;53.592;10.184;2023-02-24T03:50:58;100446.91;;;3.70;100.00
16016;BME280;8112;53.592;10.184;2023-02-24T03:56:24;100446.72;;;3.75;100.00
16016;BME280;8112;53.592;10.184;2023-02-24T04:01:35;100422.66;;;3.68;100.00
16016;BME280;8112;53.592;10.184;2023-02-24T04:06:46;100419.22;;;3.66;100.00
16016;BME280;8112;53.592;10.184;2023-02-24T04:11:55;100405.34;;;3.67;100.00
16016;BME280;8112;53.592;10.184;2023-02-24T04:17:03;100390.66;;;3.64;100.00
16016;BME280;8112;53.592;10.184;2023-02-24T04:22:12;100382.75;;;3.66;100.00
16016;BME280;8112;53.592;10.184;2023-02-24T04:27:17;100351.72;;;3.60;100.00
16016;BME280;8112;53.592;10.184;2023-02-24T04:32:23;100342.31;;;3.55;100.00
16016;BME280;8112;53.592;10.184;2023-02-24T04:37:28;100338.00;;;3.54;100.00
16016;BME280;8112;53.592;10.184;2023-02-24T04:42:35;100325.03;;;3.53;100.00
16016;BME280;8112;53.592;10.184;2023-02-24T04:47:40;100317.97;;;3.56;100.00
16016;BME280;8112;53.592;10.184;2023-02-24T04:52:48;100307.94;;;3.69;100.00
16016;BME280;8112;53.592;10.184;2023-02-24T04:57:51;100295.97;;;3.64;100.00
16016;BME280;8112;53.592;10.184;2023-02-24T05:02:55;100277.66;;;3.67;100.00
16016;BME280;8112;53.592;10.184;2023-02-24T05:08:00;100271.72;;;3.62;100.00
16016;BME280;8112;53.592;10.184;2023-02-24T05:13:03;100259.41;;;3.67;100.00
16016;BME280;8112;53.592;10.184;2023-02-24T05:18:07;100252.41;;;3.67;100.00
16016;BME280;8112;53.592;10.184;2023-02-24T05:23:14;100233.56;;;3.61;100.00
16016;BME280;8112;53.592;10.184;2023-02-24T05:28:16;100225.47;;;3.45;100.00
16016;BME280;8112;53.592;10.184;2023-02-24T05:33:18;100201.66;;;3.54;100.00
16016;BME280;8112;53.592;10.184;2023-02-24T05:38:22;100208.88;;;3.47;100.00
16016;BME280;8112;53.592;10.184;2023-02-24T05:43:23;100200.97;;;3.50;100.00
16016;BME280;8112;53.592;10.184;2023-02-24T05:48:25;100176.72;;;3.48;100.00
16016;BME280;8112;53.592;10.184;2023-02-24T05:53:29;100176.47;;;3.54;100.00
16016;BME280;8112;53.592;10.184;2023-02-24T05:58:31;100164.38;;;3.53;100.00
16016;BME280;8112;53.592;10.184;2023-02-24T06:03:32;100163.47;;;3.54;100.00
16016;BME280;8112;53.592;10.184;2023-02-24T06:08:36;100150.25;;;3.59;100.00
16016;BME280;8112;53.592;10.184;2023-02-24T06:13:43;100147.81;;;3.54;100.00
16016;BME280;8112;53.592;10.184;2023-02-24T06:18:47;100140.19;;;3.50;100.00
16016;BME280;8112;53.592;10.184;2023-02-24T06:23:51;100142.53;;;3.34;100.00
16016;BME280;8112;53.592;10.184;2023-02-24T06:28:52;100139.72;;;3.16;100.00
16016;BME280;8112;53.592;10.184;2023-02-24T06:33:54;100136.16;;;2.95;100.00
16016;BME280;8112;53.592;10.184;2023-02-24T06:38:57;100126.94;;;2.86;100.00
16016;BME280;8112;53.592;10.184;2023-02-24T06:43:59;100122.75;;;2.82;100.00
16016;BME280;8112;53.592;10.184;2023-02-24T06:49:01;100119.75;;;2.69;100.00
16016;BME280;8112;53.592;10.184;2023-02-24T06:54:05;100109.47;;;2.66;100.00
16016;BME280;8112;53.592;10.184;2023-02-24T06:59:07;100099.50;;;2.53;100.00
16016;BME280;8112;53.592;10.184;2023-02-24T07:04:12;100107.31;;;2.53;100.00
16016;BME280;8112;53.592;10.184;2023-02-24T07:09:23;100086.50;;;2.53;100.00
16016;BME280;8112;53.592;10.184;2023-02-24T07:14:27;100091.63;;;2.55;100.00
16016;BME280;8112;53.592;10.184;2023-02-24T07:19:30;100081.69;;;2.42;100.00
16016;BME280;8112;53.592;10.184;2023-02-24T07:24:35;100074.81;;;2.40;100.00
16016;BME280;8112;53.592;10.184;2023-02-24T07:29:38;100057.00;;;2.29;100.00
16016;BME280;8112;53.592;10.184;2023-02-24T07:34:40;100049.88;;;2.34;100.00
16016;BME280;8112;53.592;10.184;2023-02-24T07:39:43;100051.84;;;2.27;100.00
16016;BME280;8112;53.592;10.184;2023-02-24T07:44:45;100043.78;;;2.35;100.00
16016;BME280;8112;53.592;10.184;2023-02-24T07:49:48;100045.59;;;2.33;100.00
16016;BME280;8112;53.592;10.184;2023-02-24T07:54:51;100033.59;;;2.29;100.00
16016;BME280;8112;53.592;10.184;2023-02-24T07:59:54;100021.28;;;2.34;100.00
16016;BME280;8112;53.592;10.184;2023-02-24T08:04:56;100021.47;;;2.30;100.00
16016;BME280;8112;53.592;10.184;2023-02-24T08:09:59;100012.94;;;2.26;100.00
16016;BME280;8112;53.592;10.184;2023-02-24T08:15:25;100008.56;;;2.26;100.00
16016;BME280;8112;53.592;10.184;2023-02-24T08:20:33;99991.38;;;2.22;100.00
16016;BME280;8112;53.592;10.184;2023-02-24T08:25:52;99986.03;;;2.27;100.00
16016;BME280;8112;53.592;10.184;2023-02-24T08:30:54;99968.66;;;2.27;100.00
16016;BME280;8112;53.592;10.184;2023-02-24T08:35:56;99962.47;;;2.32;100.00
16016;BME280;8112;53.592;10.184;2023-02-24T08:41:02;99959.56;;;2.39;100.00
16016;BME280;8112;53.592;10.184;2023-02-24T08:46:12;99944.03;;;2.38;100.00
16016;BME280;8112;53.592;10.184;2023-02-24T08:51:18;99928.28;;;2.41;100.00
16016;BME280;8112;53.592;10.184;2023-02-24T08:56:25;99927.47;;;2.40;100.00
16016;BME280;8112;53.592;10.184;2023-02-24T09:01:28;99911.25;;;2.34;100.00
16016;BME280;8112;53.592;10.184;2023-02-24T09:06:40;99904.75;;;2.44;100.00
16016;BME280;8112;53.592;10.184;2023-02-24T09:11:45;99902.94;;;2.46;100.00
16016;BME280;8112;53.592;10.184;2023-02-24T09:16:50;99886.66;;;2.42;100.00
16016;BME280;8112;53.592;10.184;2023-02-24T09:22:05;99875.94;;;2.50;100.00
16016;BME280;8112;53.592;10.184;2023-02-24T09:27:15;99868.44;;;2.42;100.00
16016;BME280;8112;53.592;10.184;2023-02-24T09:32:17;99865.53;;;2.50;100.00
16016;BME280;8112;53.592;10.184;2023-02-24T09:37:19;99862.34;;;2.44;100.00
16016;BME280;8112;53.592;10.184;2023-02-24T09:42:29;99863.56;;;2.57;100.00
16016;BME280;8112;53.592;10.184;2023-02-24T09:47:46;99856.53;;;2.59;100.00
16016;BME280;8112;53.592;10.184;2023-02-24T09:52:57;99858.22;;;2.60;100.00
16016;BME280;8112;53.592;10.184;2023-02-24T09:58:27;99839.63;;;2.69;100.00
16016;BME280;8112;53.592;10.184;2023-02-24T10:03:34;99838.19;;;2.62;100.00
16016;BME280;8112;53.592;10.184;2023-02-24T10:08:52;99831.03;;;2.67;100.00
16016;BME280;8112;53.592;10.184;2023-02-24T10:13:56;99827.03;;;2.81;100.00
16016;BME280;8112;53.592;10.184;2023-02-24T10:19:04;99811.16;;;3.08;100.00
16016;BME280;8112;53.592;10.184;2023-02-24T10:24:19;99805.31;;;3.03;100.00
16016;BME280;8112;53.592;10.184;2023-02-24T10:29:42;99806.66;;;2.91;100.00
16016;BME280;8112;53.592;10.184;2023-02-24T10:34:44;99782.50;;;3.08;100.00
16016;BME280;8112;53.592;10.184;2023-02-24T10:39:49;99790.41;;;3.06;100.00
16016;BME280;8112;53.592;10.184;2023-02-24T10:45:04;99766.44;;;2.98;100.00
16016;BME280;8112;53.592;10.184;2023-02-24T10:50:22;99751.03;;;3.14;100.00
16016;BME280;8112;53.592;10.184;2023-02-24T10:55:26;99746.50;;;3.18;100.00
16016;BME280;8112;53.592;10.184;2023-02-24T11:00:52;99736.97;;;3.18;100.00
16016;BME280;8112;53.592;10.184;2023-02-24T11:06:20;99729.97;;;3.19;100.00
16016;BME280;8112;53.592;10.184;2023-02-24T11:11:41;99726.91;;;3.30;100.00
16016;BME280;8112;53.592;10.184;2023-02-24T11:16:58;99710.09;;;3.37;100.00
16016;BME280;8112;53.592;10.184;2023-02-24T11:22:19;99695.94;;;3.62;100.00
16016;BME280;8112;53.592;10.184;2023-02-24T11:27:23;99679.41;;;3.80;100.00
16016;BME280;8112;53.592;10.184;2023-02-24T11:32:40;99673.16;;;3.84;100.00
16016;BME280;8112;53.592;10.184;2023-02-24T11:37:50;99654.53;;;3.92;100.00
16016;BME280;8112;53.592;10.184;2023-02-24T11:42:59;99645.94;;;3.90;100.00
16016;BME280;8112;53.592;10.184;2023-02-24T11:48:09;99636.53;;;3.88;100.00
16016;BME280;8112;53.592;10.184;2023-02-24T11:53:24;99630.47;;;3.87;100.00
16016;BME280;8112;53.592;10.184;2023-02-24T11:58:34;99621.19;;;3.99;100.00
16016;BME280;8112;53.592;10.184;2023-02-24T12:03:46;99604.19;;;4.09;100.00
16016;BME280;8112;53.592;10.184;2023-02-24T12:08:55;99600.94;;;4.39;100.00
16016;BME280;8112;53.592;10.184;2023-02-24T12:14:05;99587.69;;;4.60;100.00
16016;BME280;8112;53.592;10.184;2023-02-24T12:19:18;99582.84;;;4.86;100.00
16016;BME280;8112;53.592;10.184;2023-02-24T12:24:23;99571.31;;;4.74;100.00
16016;BME280;8112;53.592;10.184;2023-02-24T12:29:37;99564.63;;;4.68;100.00
16016;BME280;8112;53.592;10.184;2023-02-24T12:34:51;99556.41;;;4.76;100.00
16016;BME280;8112;53.592;10.184;2023-02-24T12:40:10;99542.06;;;4.83;100.00
16016;BME280;8112;53.592;10.184;2023-02-24T12:45:17;99533.41;;;4.83;100.00
16016;BME280;8112;53.592;10.184;2023-02-24T12:50:35;99532.31;;;4.87;100.00
16016;BME280;8112;53.592;10.184;2023-02-24T12:55:44;99505.63;;;4.98;100.00
16016;BME280;8112;53.592;10.184;2023-02-24T13:00:59;99506.78;;;5.24;100.00
16016;BME280;8112;53.592;10.184;2023-02-24T13:06:10;99494.88;;;5.65;100.00
16016;BME280;8112;53.592;10.184;2023-02-24T13:11:21;99494.84;;;5.96;100.00
16016;BME280;8112;53.592;10.184;2023-02-24T13:16:27;99480.69;;;6.15;100.00
16016;BME280;8112;53.592;10.184;2023-02-24T13:21:31;99449.09;;;6.32;100.00
16016;BME280;8112;53.592;10.184;2023-02-24T13:26:34;99433.16;;;6.64;100.00
16016;BME280;8112;53.592;10.184;2023-02-24T13:31:40;99436.69;;;7.18;100.00
16016;BME280;8112;53.592;10.184;2023-02-24T13:36:48;99433.13;;;7.19;100.00
16016;BME280;8112;53.592;10.184;2023-02-24T13:42:00;99412.84;;;6.40;100.00
16016;BME280;8112;53.592;10.184;2023-02-24T13:47:31;99410.53;;;6.07;100.00
16016;BME280;8112;53.592;10.184;2023-02-24T13:52:49;99411.72;;;5.72;100.00
16016;BME280;8112;53.592;10.184;2023-02-24T13:58:04;99410.66;;;5.46;100.00
16016;BME280;8112;53.592;10.184;2023-02-24T14:03:17;99426.03;;;5.36;100.00
16016;BME280;8112;53.592;10.184;2023-02-24T14:08:23;99410.75;;;5.44;100.00
16016;BME280;8112;53.592;10.184;2023-02-24T14:13:28;99392.75;;;6.26;100.00
16016;BME280;8112;53.592;10.184;2023-02-24T14:18:33;99386.63;;;7.36;100.00
16016;BME280;8112;53.592;10.184;2023-02-24T14:23:37;99370.94;;;8.62;100.00
16016;BME280;8112;53.592;10.184;2023-02-24T14:28:39;99355.97;;;8.38;100.00
16016;BME280;8112;53.592;10.184;2023-02-24T14:33:43;99360.13;;;7.66;100.00
16016;BME280;8112;53.592;10.184;2023-02-24T14:38:59;99344.69;;;8.98;100.00
16016;BME280;8112;53.592;10.184;2023-02-24T14:44:07;99328.00;;;10.68;100.00
16016;BME280;8112;53.592;10.184;2023-02-24T14:49:19;99303.75;;;9.98;100.00
16016;BME280;8112;53.592;10.184;2023-02-24T14:54:31;99295.22;;;7.94;100.00
16016;BME280;8112;53.592;10.184;2023-02-24T14:59:38;99295.81;;;7.61;100.00
16016;BME280;8112;53.592;10.184;2023-02-24T15:04:43;99289.03;;;7.19;100.00
16016;BME280;8112;53.592;10.184;2023-02-24T15:09:48;99280.53;;;6.90;100.00
16016;BME280;8112;53.592;10.184;2023-02-24T15:14:53;99287.66;;;6.88;100.00
16016;BME280;8112;53.592;10.184;2023-02-24T15:19:57;99289.06;;;6.66;100.00
16016;BME280;8112;53.592;10.184;2023-02-24T15:25:15;99283.53;;;6.70;100.00
16016;BME280;8112;53.592;10.184;2023-02-24T15:30:30;99284.81;;;6.37;100.00
16016;BME280;8112;53.592;10.184;2023-02-24T15:35:34;99283.25;;;6.35;100.00
16016;BME280;8112;53.592;10.184;2023-02-24T15:40:38;99275.03;;;6.26;100.00
16016;BME280;8112;53.592;10.184;2023-02-24T15:45:40;99269.44;;;6.33;100.00
16016;BME280;8112;53.592;10.184;2023-02-24T15:50:41;99267.88;;;6.16;100.00
16016;BME280;8112;53.592;10.184;2023-02-24T15:55:46;99257.75;;;5.96;100.00
16016;BME280;8112;53.592;10.184;2023-02-24T16:00:49;99252.78;;;6.06;100.00
16016;BME280;8112;53.592;10.184;2023-02-24T16:05:51;99254.81;;;6.16;100.00
16016;BME280;8112;53.592;10.184;2023-02-24T16:10:55;99247.28;;;5.96;100.00
16016;BME280;8112;53.592;10.184;2023-02-24T16:15:57;99249.34;;;5.91;100.00
16016;BME280;8112;53.592;10.184;2023-02-24T16:20:59;99252.81;;;5.77;100.00
16016;BME280;8112;53.592;10.184;2023-02-24T16:26:02;99246.13;;;5.73;100.00
16016;BME280;8112;53.592;10.184;2023-02-24T16:31:04;99260.41;;;5.67;100.00
16016;BME280;8112;53.592;10.184;2023-02-24T16:36:09;99249.50;;;5.61;100.00
16016;BME280;8112;53.592;10.184;2023-02-24T16:41:12;99236.34;;;5.62;100.00
16016;BME280;8112;53.592;10.184;2023-02-24T16:46:15;99250.81;;;5.53;100.00
16016;BME280;8112;53.592;10.184;2023-02-24T16:51:18;99259.66;;;5.65;100.00
16016;BME280;8112;53.592;10.184;2023-02-24T16:56:22;99258.84;;;5.50;100.00
16016;BME280;8112;53.592;10.184;2023-02-24T17:01:23;99260.34;;;5.40;100.00
16016;BME280;8112;53.592;10.184;2023-02-24T17:06:25;99272.66;;;5.23;100.00
16016;BME280;8112;53.592;10.184;2023-02-24T17:11:28;99269.72;;;4.99;100.00
16016;BME280;8112;53.592;10.184;2023-02-24T17:16:30;99276.88;;;4.81;100.00
16016;BME280;8112;53.592;10.184;2023-02-24T17:21:31;99277.72;;;4.81;100.00
16016;BME280;8112;53.592;10.184;2023-02-24T17:26:35;99280.63;;;4.77;100.00
16016;BME280;8112;53.592;10.184;2023-02-24T17:31:36;99281.50;;;4.76;100.00
16016;BME280;8112;53.592;10.184;2023-02-24T17:36:38;99286.41;;;4.82;100.00
16016;BME280;8112;53.592;10.184;2023-02-24T17:41:41;99295.59;;;4.73;100.00
16016;BME280;8112;53.592;10.184;2023-02-24T17:46:43;99289.13;;;4.64;100.00
16016;BME280;8112;53.592;10.184;2023-02-24T17:51:44;99299.53;;;4.50;100.00
16016;BME280;8112;53.592;10.184;2023-02-24T17:56:47;99303.41;;;4.42;100.00
16016;BME280;8112;53.592;10.184;2023-02-24T18:01:49;99297.69;;;4.20;100.00
16016;BME280;8112;53.592;10.184;2023-02-24T18:06:51;99297.66;;;4.05;100.00
16016;BME280;8112;53.592;10.184;2023-02-24T18:11:54;99300.50;;;4.01;100.00
16016;BME280;8112;53.592;10.184;2023-02-24T18:16:55;99303.69;;;3.90;100.00
16016;BME280;8112;53.592;10.184;2023-02-24T18:21:57;99295.28;;;3.84;100.00
16016;BME280;8112;53.592;10.184;2023-02-24T18:27:00;99298.97;;;3.80;100.00
16016;BME280;8112;53.592;10.184;2023-02-24T18:32:03;99297.56;;;3.91;100.00
16016;BME280;8112;53.592;10.184;2023-02-24T18:37:05;99303.88;;;3.87;100.00
16016;BME280;8112;53.592;10.184;2023-02-24T18:42:08;99310.47;;;3.92;100.00
16016;BME280;8112;53.592;10.184;2023-02-24T18:47:11;99306.88;;;3.95;100.00
16016;BME280;8112;53.592;10.184;2023-02-24T18:52:12;99314.22;;;4.04;100.00
16016;BME280;8112;53.592;10.184;2023-02-24T18:57:15;99307.97;;;4.23;100.00
16016;BME280;8112;53.592;10.184;2023-02-24T19:02:17;99309.31;;;4.30;100.00
16016;BME280;8112;53.592;10.184;2023-02-24T19:07:19;99293.28;;;4.22;100.00
16016;BME280;8112;53.592;10.184;2023-02-24T19:12:22;99302.34;;;4.14;100.00
16016;BME280;8112;53.592;10.184;2023-02-24T19:17:23;99303.75;;;4.36;100.00
16016;BME280;8112;53.592;10.184;2023-02-24T19:22:25;99286.41;;;4.35;100.00
16016;BME280;8112;53.592;10.184;2023-02-24T19:27:29;99299.06;;;4.27;100.00
16016;BME280;8112;53.592;10.184;2023-02-24T19:32:30;99296.44;;;4.27;100.00
16016;BME280;8112;53.592;10.184;2023-02-24T19:37:32;99290.31;;;4.28;100.00
16016;BME280;8112;53.592;10.184;2023-02-24T19:42:35;99295.34;;;4.31;100.00
16016;BME280;8112;53.592;10.184;2023-02-24T19:47:37;99285.41;;;4.38;100.00
16016;BME280;8112;53.592;10.184;2023-02-24T19:52:42;99286.22;;;4.38;100.00
16016;BME280;8112;53.592;10.184;2023-02-24T19:57:45;99282.88;;;4.36;100.00
16016;BME280;8112;53.592;10.184;2023-02-24T20:02:46;99290.13;;;4.31;100.00
16016;BME280;8112;53.592;10.184;2023-02-24T20:07:48;99287.59;;;4.30;100.00
16016;BME280;8112;53.592;10.184;2023-02-24T20:12:51;99283.97;;;4.32;100.00
16016;BME280;8112;53.592;10.184;2023-02-24T20:17:53;99297.53;;;4.39;100.00
16016;BME280;8112;53.592;10.184;2023-02-24T20:22:55;99287.66;;;4.44;100.00
16016;BME280;8112;53.592;10.184;2023-02-24T20:27:58;99293.31;;;4.36;100.00
16016;BME280;8112;53.592;10.184;2023-02-24T20:32:59;99293.16;;;4.39;100.00
16016;BME280;8112;53.592;10.184;2023-02-24T20:38:01;99310.75;;;4.36;100.00
16016;BME280;8112;53.592;10.184;2023-02-24T20:43:06;99295.34;;;4.31;100.00
16016;BME280;8112;53.592;10.184;2023-02-24T20:48:08;99303.41;;;4.26;100.00
16016;BME280;8112;53.592;10.184;2023-02-24T20:53:09;99306.31;;;4.22;100.00
16016;BME280;8112;53.592;10.184;2023-02-24T20:58:12;99289.72;;;4.23;100.00
16016;BME280;8112;53.592;10.184;2023-02-24T21:03:15;99301.09;;;4.22;100.00
16016;BME280;8112;53.592;10.184;2023-02-24T21:08:18;99303.59;;;4.23;100.00
16016;BME280;8112;53.592;10.184;2023-02-24T21:13:21;99299.56;;;4.18;100.00
16016;BME280;8112;53.592;10.184;2023-02-24T21:18:22;99306.44;;;4.19;100.00
16016;BME280;8112;53.592;10.184;2023-02-24T21:23:24;99310.59;;;4.23;100.00
16016;BME280;8112;53.592;10.184;2023-02-24T21:28:27;99334.91;;;4.39;100.00
16016;BME280;8112;53.592;10.184;2023-02-24T21:33:29;99310.31;;;4.44;100.00
16016;BME280;8112;53.592;10.184;2023-02-24T21:38:31;99325.78;;;4.47;100.00
16016;BME280;8112;53.592;10.184;2023-02-24T21:43:34;99327.81;;;4.41;100.00
16016;BME280;8112;53.592;10.184;2023-02-24T21:48:37;99326.22;;;4.39;100.00
16016;BME280;8112;53.592;10.184;2023-02-24T21:53:40;99327.63;;;4.45;100.00
16016;BME280;8112;53.592;10.184;2023-02-24T21:58:46;99338.06;;;4.45;100.00
16016;BME280;8112;53.592;10.184;2023-02-24T22:03:51;99349.94;;;4.34;100.00
16016;BME280;8112;53.592;10.184;2023-02-24T22:08:54;99346.00;;;4.27;100.00
16016;BME280;8112;53.592;10.184;2023-02-24T22:13:57;99366.69;;;4.14;100.00
16016;BME280;8112;53.592;10.184;2023-02-24T22:18:59;99358.78;;;3.99;100.00
16016;BME280;8112;53.592;10.184;2023-02-24T22:24:04;99375.56;;;3.94;100.00
16016;BME280;8112;53.592;10.184;2023-02-24T22:29:07;99366.41;;;3.87;100.00
16016;BME280;8112;53.592;10.184;2023-02-24T22:34:08;99367.56;;;3.81;100.00
16016;BME280;8112;53.592;10.184;2023-02-24T22:39:10;99375.97;;;3.86;100.00
16016;BME280;8112;53.592;10.184;2023-02-24T22:44:17;99366.06;;;3.77;100.00
16016;BME280;8112;53.592;10.184;2023-02-24T22:49:20;99366.56;;;3.50;100.00
16016;BME280;8112;53.592;10.184;2023-02-24T22:54:22;99374.88;;;3.40;100.00
16016;BME280;8112;53.592;10.184;2023-02-24T22:59:25;99382.69;;;3.40;100.00
16016;BME280;8112;53.592;10.184;2023-02-24T23:04:26;99382.59;;;3.24;100.00
16016;BME280;8112;53.592;10.184;2023-02-24T23:09:29;99380.22;;;3.20;100.00
16016;BME280;8112;53.592;10.184;2023-02-24T23:14:32;99395.53;;;3.08;100.00
16016;BME280;8112;53.592;10.184;2023-02-24T23:19:33;99392.09;;;3.08;100.00
16016;BME280;8112;53.592;10.184;2023-02-24T23:24:35;99405.56;;;2.98;100.00
16016;BME280;8112;53.592;10.184;2023-02-24T23:29:38;99411.69;;;2.97;100.00
16016;BME280;8112;53.592;10.184;2023-02-24T23:34:40;99410.00;;;2.96;100.00
16016;BME280;8112;53.592;10.184;2023-02-24T23:39:42;99423.59;;;2.84;100.00
16016;BME280;8112;53.592;10.184;2023-02-24T23:44:45;99433.78;;;2.89;100.00
16016;BME280;8112;53.592;10.184;2023-02-24T23:49:48;99434.78;;;2.86;100.00
16016;BME280;8112;53.592;10.184;2023-02-24T23:54:50;99437.97;;;2.91;100.00
16016;BME280;8112;53.592;10.184;2023-02-24T23:59:53;99448.13;;;2.97;100.00
